Terminal Aerodrome Forecast
Issued by NWS Charleston, WV

Current Version | Previous Version | Text Only | Print | Product List | Glossary Off
Versions: 1 2 3 4 5 6 7 8 9 10 11 12 13 14 15 16 17 18 19 20 21 22 23 24

108
FTUS41 KRLX 302338
TAFEKN
TAF
KEKN 302338Z 0100/0124 16007KT 6SM SHRA BR OVC035
     FM010500 15010G17KT 6SM BR OVC020
     FM010900 18009KT 5SM BR OVC015
     FM011400 21007KT P6SM SHRA OVC035
     FM011600 23007KT P6SM VCTS OVC040CB=

USA.gov is the U.S. government's official web portal to all federal, state and local government web resources and services.